Rehobeth, Alabama
Current Conditions -  °F | °C
As of 11:53 AM on Sunday 21 Dec 2014 (Local Time) from KDHN Reporting Station
Haze Haze  
Wind Chill: 13°   Ceiling: 800
Heat Index: 13°   Visibility: 5mi
Dew Point: 11°   Wind: 8mph
Humidity: 89%   Direction: 70°ENE
Pressure: 30.12"   Gusts: NA
Location:  31.271°N, 85.3923°W
Report Text: KDHN 211753Z 07007KT 5SM BR OVC008 13/11 A3012 RMK AO2 SLP198 T01280111 10128 20117 58014
Loading
Personal Weather Stations






























Interactive Weather Map New forecast layout! Learn more

10-Day Weather Forecast

Advertisements
Track Severe Weather on mobile